sensor_id;sensor_type;location;lat;lon;timestamp;pressure;altitude;pressure_sealevel;temperature;humidity
39681;BME280;26327;42.550;23.120;2023-04-29T00:00:33;92830.50;;;4.21;88.00
39681;BME280;26327;42.550;23.120;2023-04-29T00:02:59;92861.06;;;4.24;88.69
39681;BME280;26327;42.550;23.120;2023-04-29T00:05:25;92786.47;;;3.69;89.38
39681;BME280;26327;42.550;23.120;2023-04-29T00:07:51;92850.53;;;4.17;89.59
39681;BME280;26327;42.550;23.120;2023-04-29T00:10:17;92812.63;;;3.92;89.79
39681;BME280;26327;42.550;23.120;2023-04-29T00:12:42;92878.44;;;4.12;90.09
39681;BME280;26327;42.550;23.120;2023-04-29T00:15:08;92839.03;;;3.84;90.12
39681;BME280;26327;42.550;23.120;2023-04-29T00:17:34;92805.69;;;3.65;89.65
39681;BME280;26327;42.550;23.120;2023-04-29T00:19:59;92844.47;;;3.81;90.17
39681;BME280;26327;42.550;23.120;2023-04-29T00:22:25;92730.25;;;3.19;89.21
39681;BME280;26327;42.550;23.120;2023-04-29T00:24:50;92870.47;;;4.05;89.53
39681;BME280;26327;42.550;23.120;2023-04-29T00:27:17;92870.91;;;4.01;88.68
39681;BME280;26327;42.550;23.120;2023-04-29T00:29:43;92884.56;;;4.01;88.55
39681;BME280;26327;42.550;23.120;2023-04-29T00:32:08;92843.63;;;3.90;87.40
39681;BME280;26327;42.550;23.120;2023-04-29T00:34:33;92882.03;;;3.92;87.26
39681;BME280;26327;42.550;23.120;2023-04-29T00:36:59;92840.22;;;3.43;88.69
39681;BME280;26327;42.550;23.120;2023-04-29T00:39:24;92824.03;;;3.33;89.84
39681;BME280;26327;42.550;23.120;2023-04-29T00:41:50;92785.34;;;3.25;88.93
39681;BME280;26327;42.550;23.120;2023-04-29T00:44:16;92859.63;;;3.65;89.00
39681;BME280;26327;42.550;23.120;2023-04-29T00:46:41;92832.88;;;3.58;88.61
39681;BME280;26327;42.550;23.120;2023-04-29T00:49:07;92866.25;;;3.67;88.86
39681;BME280;26327;42.550;23.120;2023-04-29T00:51:33;92874.22;;;3.74;87.95
39681;BME280;26327;42.550;23.120;2023-04-29T00:54:00;92858.88;;;3.45;88.36
39681;BME280;26327;42.550;23.120;2023-04-29T00:56:27;92856.69;;;3.50;88.58
39681;BME280;26327;42.550;23.120;2023-04-29T00:58:55;92786.19;;;3.15;87.70
39681;BME280;26327;42.550;23.120;2023-04-29T01:01:21;92795.50;;;3.16;88.09
39681;BME280;26327;42.550;23.120;2023-04-29T01:03:47;92837.38;;;3.27;88.77
39681;BME280;26327;42.550;23.120;2023-04-29T01:06:25;92862.66;;;3.41;89.71
39681;BME280;26327;42.550;23.120;2023-04-29T01:14:24;92760.31;;;2.51;91.95
39681;BME280;26327;42.550;23.120;2023-04-29T01:16:57;92837.69;;;3.04;92.27
39681;BME280;26327;42.550;23.120;2023-04-29T01:22:05;92848.22;;;2.92;93.68
39681;BME280;26327;42.550;23.120;2023-04-29T01:24:31;92720.19;;;2.31;92.41
39681;BME280;26327;42.550;23.120;2023-04-29T01:27:09;92834.16;;;3.15;92.14
39681;BME280;26327;42.550;23.120;2023-04-29T01:32:16;92858.06;;;3.25;91.78
39681;BME280;26327;42.550;23.120;2023-04-29T01:34:54;92701.47;;;2.40;92.05
39681;BME280;26327;42.550;23.120;2023-04-29T01:37:51;92681.75;;;2.31;91.54
39681;BME280;26327;42.550;23.120;2023-04-29T01:40:37;92815.81;;;2.91;92.66
39681;BME280;26327;42.550;23.120;2023-04-29T01:43:07;92788.91;;;2.56;95.24
39681;BME280;26327;42.550;23.120;2023-04-29T01:45:37;92822.91;;;2.39;97.67
39681;BME280;26327;42.550;23.120;2023-04-29T01:48:06;92832.66;;;2.45;100.00
39681;BME280;26327;42.550;23.120;2023-04-29T01:50:32;92710.56;;;1.84;100.00
39681;BME280;26327;42.550;23.120;2023-04-29T01:52:58;92789.69;;;2.28;100.00
39681;BME280;26327;42.550;23.120;2023-04-29T01:55:23;92814.56;;;2.37;100.00
39681;BME280;26327;42.550;23.120;2023-04-29T01:57:49;92731.06;;;1.84;100.00
39681;BME280;26327;42.550;23.120;2023-04-29T02:00:15;92833.59;;;2.53;100.00
39681;BME280;26327;42.550;23.120;2023-04-29T02:02:40;92725.72;;;1.97;100.00
39681;BME280;26327;42.550;23.120;2023-04-29T02:05:05;92828.63;;;2.62;100.00
39681;BME280;26327;42.550;23.120;2023-04-29T02:07:31;92844.44;;;2.86;100.00
39681;BME280;26327;42.550;23.120;2023-04-29T02:09:57;92807.00;;;2.83;100.00
39681;BME280;26327;42.550;23.120;2023-04-29T02:12:22;92726.69;;;2.54;99.99
39681;BME280;26327;42.550;23.120;2023-04-29T02:14:51;92795.53;;;2.97;99.99
39681;BME280;26327;42.550;23.120;2023-04-29T02:17:17;92772.31;;;2.89;98.96
39681;BME280;26327;42.550;23.120;2023-04-29T02:19:42;92828.88;;;3.36;98.05
39681;BME280;26327;42.550;23.120;2023-04-29T02:22:08;92710.63;;;2.52;97.44
39681;BME280;26327;42.550;23.120;2023-04-29T02:24:36;92782.97;;;3.04;96.37
39681;BME280;26327;42.550;23.120;2023-04-29T02:27:02;92781.50;;;2.92;96.43
39681;BME280;26327;42.550;23.120;2023-04-29T02:29:30;92794.72;;;2.97;96.38
39681;BME280;26327;42.550;23.120;2023-04-29T02:31:55;92803.25;;;2.97;96.25
39681;BME280;26327;42.550;23.120;2023-04-29T02:34:21;92822.41;;;3.03;96.55
39681;BME280;26327;42.550;23.120;2023-04-29T02:36:48;92773.53;;;2.66;96.44
39681;BME280;26327;42.550;23.120;2023-04-29T02:39:14;92744.25;;;2.49;95.62
39681;BME280;26327;42.550;23.120;2023-04-29T02:41:39;92828.09;;;3.06;95.51
39681;BME280;26327;42.550;23.120;2023-04-29T02:44:06;92814.97;;;3.19;95.25
39681;BME280;26327;42.550;23.120;2023-04-29T02:46:31;92830.66;;;3.16;95.41
39681;BME280;26327;42.550;23.120;2023-04-29T02:48:59;92776.75;;;2.77;95.67
39681;BME280;26327;42.550;23.120;2023-04-29T02:51:25;92731.69;;;2.56;95.33
39681;BME280;26327;42.550;23.120;2023-04-29T02:53:50;92790.81;;;2.83;95.72
39681;BME280;26327;42.550;23.120;2023-04-29T02:56:16;92798.63;;;2.72;95.54
39681;BME280;26327;42.550;23.120;2023-04-29T02:58:41;92793.66;;;2.70;95.03
39681;BME280;26327;42.550;23.120;2023-04-29T03:01:06;92700.22;;;2.05;94.71
39681;BME280;26327;42.550;23.120;2023-04-29T03:03:32;92825.09;;;2.82;95.02
39681;BME280;26327;42.550;23.120;2023-04-29T03:05:57;92848.50;;;2.89;95.56
39681;BME280;26327;42.550;23.120;2023-04-29T03:08:23;92834.00;;;2.68;95.82
39681;BME280;26327;42.550;23.120;2023-04-29T03:10:48;92823.06;;;2.57;96.08
39681;BME280;26327;42.550;23.120;2023-04-29T03:13:13;92799.19;;;2.56;96.22
39681;BME280;26327;42.550;23.120;2023-04-29T03:15:39;92840.66;;;3.00;94.62
39681;BME280;26327;42.550;23.120;2023-04-29T03:18:05;92852.41;;;2.93;94.81
39681;BME280;26327;42.550;23.120;2023-04-29T03:20:30;92780.97;;;2.49;95.19
39681;BME280;26327;42.550;23.120;2023-04-29T03:22:56;92838.06;;;2.71;95.39
39681;BME280;26327;42.550;23.120;2023-04-29T03:25:22;92697.94;;;1.93;94.60
39681;BME280;26327;42.550;23.120;2023-04-29T03:27:48;92855.47;;;2.77;95.32
39681;BME280;26327;42.550;23.120;2023-04-29T03:30:13;92849.69;;;2.75;95.29
39681;BME280;26327;42.550;23.120;2023-04-29T03:32:38;92857.25;;;2.76;95.66
39681;BME280;26327;42.550;23.120;2023-04-29T03:35:04;92860.06;;;2.64;96.26
39681;BME280;26327;42.550;23.120;2023-04-29T03:37:30;92841.44;;;2.52;97.00
39681;BME280;26327;42.550;23.120;2023-04-29T03:39:55;92834.16;;;2.76;96.08
39681;BME280;26327;42.550;23.120;2023-04-29T03:42:20;92855.25;;;2.99;94.78
39681;BME280;26327;42.550;23.120;2023-04-29T03:44:46;92839.00;;;2.70;95.17
39681;BME280;26327;42.550;23.120;2023-04-29T03:47:11;92859.41;;;2.81;96.23
39681;BME280;26327;42.550;23.120;2023-04-29T03:49:37;92781.75;;;1.81;98.07
39681;BME280;26327;42.550;23.120;2023-04-29T03:52:03;92778.22;;;1.72;99.18
39681;BME280;26327;42.550;23.120;2023-04-29T03:54:29;92788.31;;;2.14;99.19
39681;BME280;26327;42.550;23.120;2023-04-29T03:56:55;92783.66;;;2.48;98.55
39681;BME280;26327;42.550;23.120;2023-04-29T03:59:20;92859.72;;;2.97;98.69
39681;BME280;26327;42.550;23.120;2023-04-29T04:01:45;92776.78;;;2.58;98.03
39681;BME280;26327;42.550;23.120;2023-04-29T04:04:11;92847.13;;;3.23;97.52
39681;BME280;26327;42.550;23.120;2023-04-29T04:06:37;92882.38;;;3.50;95.36
39681;BME280;26327;42.550;23.120;2023-04-29T04:09:03;92768.66;;;2.72;96.93
39681;BME280;26327;42.550;23.120;2023-04-29T04:11:28;92777.00;;;3.13;95.82
39681;BME280;26327;42.550;23.120;2023-04-29T04:13:54;92829.97;;;3.14;96.60
39681;BME280;26327;42.550;23.120;2023-04-29T04:16:19;92884.41;;;3.46;97.81
39681;BME280;26327;42.550;23.120;2023-04-29T04:18:45;92777.44;;;3.08;96.31
39681;BME280;26327;42.550;23.120;2023-04-29T04:21:11;92857.75;;;3.57;96.24
39681;BME280;26327;42.550;23.120;2023-04-29T04:23:36;92825.31;;;3.56;96.44
39681;BME280;26327;42.550;23.120;2023-04-29T04:26:05;92862.00;;;3.95;96.29
39681;BME280;26327;42.550;23.120;2023-04-29T04:28:31;92833.91;;;4.11;94.80
39681;BME280;26327;42.550;23.120;2023-04-29T04:30:56;92858.78;;;4.48;93.58
39681;BME280;26327;42.550;23.120;2023-04-29T04:33:23;92774.13;;;4.09;91.42
39681;BME280;26327;42.550;23.120;2023-04-29T04:35:48;92862.06;;;4.68;90.52
39681;BME280;26327;42.550;23.120;2023-04-29T04:38:14;92863.22;;;4.56;90.34
39681;BME280;26327;42.550;23.120;2023-04-29T04:40:40;92852.03;;;4.74;91.32
39681;BME280;26327;42.550;23.120;2023-04-29T04:43:06;92848.19;;;4.96;90.21
39681;BME280;26327;42.550;23.120;2023-04-29T04:45:32;92817.16;;;4.80;90.15
39681;BME280;26327;42.550;23.120;2023-04-29T04:47:58;92853.84;;;5.18;88.85
39681;BME280;26327;42.550;23.120;2023-04-29T04:50:26;92849.28;;;5.12;89.79
39681;BME280;26327;42.550;23.120;2023-04-29T04:52:53;92855.41;;;5.28;89.50
39681;BME280;26327;42.550;23.120;2023-04-29T04:55:19;92839.75;;;5.22;89.92
39681;BME280;26327;42.550;23.120;2023-04-29T04:57:44;92835.16;;;5.33;88.85
39681;BME280;26327;42.550;23.120;2023-04-29T05:00:11;92821.28;;;5.52;88.08
39681;BME280;26327;42.550;23.120;2023-04-29T05:02:36;92820.19;;;5.55;85.61
39681;BME280;26327;42.550;23.120;2023-04-29T05:05:02;92810.72;;;5.63;84.89
39681;BME280;26327;42.550;23.120;2023-04-29T05:07:27;92778.47;;;5.59;84.24
39681;BME280;26327;42.550;23.120;2023-04-29T05:09:53;92783.50;;;5.35;86.00
39681;BME280;26327;42.550;23.120;2023-04-29T05:12:18;92835.41;;;6.18;84.41
39681;BME280;26327;42.550;23.120;2023-04-29T05:14:43;92829.63;;;6.24;84.30
39681;BME280;26327;42.550;23.120;2023-04-29T05:17:09;92789.72;;;6.44;81.82
39681;BME280;26327;42.550;23.120;2023-04-29T05:19:35;92828.72;;;6.91;80.20
39681;BME280;26327;42.550;23.120;2023-04-29T05:22:00;92833.28;;;7.22;78.10
39681;BME280;26327;42.550;23.120;2023-04-29T05:24:26;92757.53;;;6.97;77.25
39681;BME280;26327;42.550;23.120;2023-04-29T05:26:51;92776.75;;;7.35;76.63
39681;BME280;26327;42.550;23.120;2023-04-29T05:29:18;92733.59;;;7.44;75.75
39681;BME280;26327;42.550;23.120;2023-04-29T05:31:43;92844.00;;;8.31;73.83
39681;BME280;26327;42.550;23.120;2023-04-29T05:34:09;92844.31;;;8.44;73.50
39681;BME280;26327;42.550;23.120;2023-04-29T05:36:34;92819.22;;;8.53;72.44
39681;BME280;26327;42.550;23.120;2023-04-29T05:39:00;92807.72;;;8.56;73.32
39681;BME280;26327;42.550;23.120;2023-04-29T05:41:25;92837.84;;;9.10;72.69
39681;BME280;26327;42.550;23.120;2023-04-29T05:43:51;92826.41;;;9.28;72.13
39681;BME280;26327;42.550;23.120;2023-04-29T05:46:16;92818.91;;;9.10;72.71
39681;BME280;26327;42.550;23.120;2023-04-29T05:48:42;92828.28;;;9.34;71.44
39681;BME280;26327;42.550;23.120;2023-04-29T05:51:07;92818.72;;;9.57;70.71
39681;BME280;26327;42.550;23.120;2023-04-29T05:53:33;92827.97;;;9.74;70.05
39681;BME280;26327;42.550;23.120;2023-04-29T05:55:59;92751.13;;;9.36;68.90
39681;BME280;26327;42.550;23.120;2023-04-29T05:58:29;92789.41;;;9.34;64.89
39681;BME280;26327;42.550;23.120;2023-04-29T06:00:54;92806.03;;;10.00;63.19
39681;BME280;26327;42.550;23.120;2023-04-29T06:03:19;92807.63;;;10.16;63.21
39681;BME280;26327;42.550;23.120;2023-04-29T06:05:45;92840.97;;;10.71;58.36
39681;BME280;26327;42.550;23.120;2023-04-29T06:08:10;92753.22;;;10.22;57.61
39681;BME280;26327;42.550;23.120;2023-04-29T06:10:36;92815.50;;;10.81;57.89
39681;BME280;26327;42.550;23.120;2023-04-29T06:13:02;92814.19;;;11.07;57.43
39681;BME280;26327;42.550;23.120;2023-04-29T06:15:27;92797.06;;;11.55;53.85
39681;BME280;26327;42.550;23.120;2023-04-29T06:17:53;92804.19;;;11.89;52.69
39681;BME280;26327;42.550;23.120;2023-04-29T06:20:18;92804.69;;;12.06;51.90
39681;BME280;26327;42.550;23.120;2023-04-29T06:22:44;92747.44;;;12.47;49.32
39681;BME280;26327;42.550;23.120;2023-04-29T06:25:09;92814.13;;;13.23;49.53
39681;BME280;26327;42.550;23.120;2023-04-29T06:27:34;92784.88;;;13.61;48.11
39681;BME280;26327;42.550;23.120;2023-04-29T06:30:00;92772.41;;;14.23;45.90
39681;BME280;26327;42.550;23.120;2023-04-29T06:32:25;92795.56;;;14.97;44.19
39681;BME280;26327;42.550;23.120;2023-04-29T06:34:51;92724.63;;;15.43;41.58
39681;BME280;26327;42.550;23.120;2023-04-29T06:37:16;92695.19;;;15.48;39.59
39681;BME280;26327;42.550;23.120;2023-04-29T06:39:41;92776.06;;;16.62;37.88
39681;BME280;26327;42.550;23.120;2023-04-29T06:42:07;92745.78;;;17.14;36.38
39681;BME280;26327;42.550;23.120;2023-04-29T06:44:32;92798.97;;;18.35;35.27
39681;BME280;26327;42.550;23.120;2023-04-29T06:46:58;92794.63;;;19.39;33.20
39681;BME280;26327;42.550;23.120;2023-04-29T06:49:23;92748.13;;;20.23;31.71
39681;BME280;26327;42.550;23.120;2023-04-29T06:51:48;92791.81;;;21.74;28.95
39681;BME280;26327;42.550;23.120;2023-04-29T06:54:14;92731.63;;;22.13;27.47
39681;BME280;26327;42.550;23.120;2023-04-29T06:56:39;92752.06;;;23.02;26.26
39681;BME280;26327;42.550;23.120;2023-04-29T06:59:05;92741.59;;;23.32;24.93
39681;BME280;26327;42.550;23.120;2023-04-29T07:01:31;92775.25;;;24.30;24.25
39681;BME280;26327;42.550;23.120;2023-04-29T07:03:56;92737.44;;;24.94;23.00
39681;BME280;26327;42.550;23.120;2023-04-29T07:06:22;92676.47;;;23.72;21.10
39681;BME280;26327;42.550;23.120;2023-04-29T07:08:47;92756.59;;;24.04;21.20
39681;BME280;26327;42.550;23.120;2023-04-29T07:11:12;92749.22;;;24.42;22.72
39681;BME280;26327;42.550;23.120;2023-04-29T07:13:38;92775.16;;;24.96;21.33
39681;BME280;26327;42.550;23.120;2023-04-29T07:16:03;92726.00;;;25.03;20.25
39681;BME280;26327;42.550;23.120;2023-04-29T07:18:29;92761.53;;;25.28;19.70
39681;BME280;26327;42.550;23.120;2023-04-29T07:20:59;92776.72;;;25.87;20.70
39681;BME280;26327;42.550;23.120;2023-04-29T07:23:25;92752.09;;;25.61;19.60
39681;BME280;26327;42.550;23.120;2023-04-29T07:25:51;92768.88;;;26.45;19.07
39681;BME280;26327;42.550;23.120;2023-04-29T07:28:16;92706.78;;;26.15;19.13
39681;BME280;26327;42.550;23.120;2023-04-29T07:30:41;92727.03;;;25.72;20.10
39681;BME280;26327;42.550;23.120;2023-04-29T07:33:07;92760.69;;;25.97;20.71
39681;BME280;26327;42.550;23.120;2023-04-29T07:35:32;92758.53;;;25.99;19.40
39681;BME280;26327;42.550;23.120;2023-04-29T07:37:58;92774.94;;;25.72;19.84
39681;BME280;26327;42.550;23.120;2023-04-29T07:40:23;92711.38;;;24.96;19.86
39681;BME280;26327;42.550;23.120;2023-04-29T07:42:49;92698.28;;;21.80;22.14
39681;BME280;26327;42.550;23.120;2023-04-29T07:45:14;92721.31;;;22.16;21.50
39681;BME280;26327;42.550;23.120;2023-04-29T07:47:39;92776.63;;;22.87;22.15
39681;BME280;26327;42.550;23.120;2023-04-29T07:50:05;92762.63;;;22.54;21.86
39681;BME280;26327;42.550;23.120;2023-04-29T07:52:31;92771.06;;;22.14;22.47
39681;BME280;26327;42.550;23.120;2023-04-29T07:54:56;92702.09;;;21.94;22.01
39681;BME280;26327;42.550;23.120;2023-04-29T07:57:22;92706.56;;;21.61;22.57
39681;BME280;26327;42.550;23.120;2023-04-29T07:59:53;92750.41;;;22.48;22.24
39681;BME280;26327;42.550;23.120;2023-04-29T08:02:19;92738.50;;;22.14;22.05
39681;BME280;26327;42.550;23.120;2023-04-29T08:04:45;92755.53;;;21.96;23.26
39681;BME280;26327;42.550;23.120;2023-04-29T08:07:11;92724.97;;;21.51;24.41
39681;BME280;26327;42.550;23.120;2023-04-29T08:09:37;92670.03;;;20.61;24.16
39681;BME280;26327;42.550;23.120;2023-04-29T08:12:02;92745.25;;;21.02;25.37
39681;BME280;26327;42.550;23.120;2023-04-29T08:14:28;92751.41;;;21.08;25.01
39681;BME280;26327;42.550;23.120;2023-04-29T08:16:54;92642.09;;;20.26;24.72
39681;BME280;26327;42.550;23.120;2023-04-29T08:19:20;92722.47;;;21.18;24.59
39681;BME280;26327;42.550;23.120;2023-04-29T08:21:46;92679.94;;;21.19;24.40
39681;BME280;26327;42.550;23.120;2023-04-29T08:24:11;92713.69;;;21.34;24.32
39681;BME280;26327;42.550;23.120;2023-04-29T08:26:39;92738.13;;;21.46;24.50
39681;BME280;26327;42.550;23.120;2023-04-29T08:29:05;92706.06;;;20.72;24.65
39681;BME280;26327;42.550;23.120;2023-04-29T08:31:31;92756.53;;;21.36;24.75
39681;BME280;26327;42.550;23.120;2023-04-29T08:33:56;92763.22;;;21.00;23.97
39681;BME280;26327;42.550;23.120;2023-04-29T08:36:23;92733.72;;;20.14;24.99
39681;BME280;26327;42.550;23.120;2023-04-29T08:38:48;92759.75;;;19.60;25.19
39681;BME280;26327;42.550;23.120;2023-04-29T08:41:17;92756.06;;;19.61;25.82
39681;BME280;26327;42.550;23.120;2023-04-29T08:43:42;92741.28;;;19.60;26.28
39681;BME280;26327;42.550;23.120;2023-04-29T08:46:08;92739.88;;;19.41;26.14
39681;BME280;26327;42.550;23.120;2023-04-29T08:48:35;92751.06;;;19.19;26.49
39681;BME280;26327;42.550;23.120;2023-04-29T08:51:01;92739.97;;;18.42;28.42
39681;BME280;26327;42.550;23.120;2023-04-29T08:53:28;92723.97;;;18.67;27.49
39681;BME280;26327;42.550;23.120;2023-04-29T08:55:53;92658.06;;;18.50;29.14
39681;BME280;26327;42.550;23.120;2023-04-29T08:58:19;92731.25;;;18.77;27.32
39681;BME280;26327;42.550;23.120;2023-04-29T09:00:45;92750.81;;;18.81;27.45
39681;BME280;26327;42.550;23.120;2023-04-29T09:05:40;92745.53;;;19.61;26.48
39681;BME280;26327;42.550;23.120;2023-04-29T09:08:07;92688.88;;;19.18;26.71
39681;BME280;26327;42.550;23.120;2023-04-29T09:10:35;92751.28;;;19.58;28.51
39681;BME280;26327;42.550;23.120;2023-04-29T09:13:01;92666.13;;;19.74;27.49
39681;BME280;26327;42.550;23.120;2023-04-29T09:15:27;92743.78;;;21.55;27.47
39681;BME280;26327;42.550;23.120;2023-04-29T09:17:53;92681.66;;;22.69;24.99
39681;BME280;26327;42.550;23.120;2023-04-29T09:22:48;92689.91;;;25.47;21.65
39681;BME280;26327;42.550;23.120;2023-04-29T09:25:14;92691.31;;;26.51;21.67
39681;BME280;26327;42.550;23.120;2023-04-29T09:27:39;92662.41;;;27.54;19.42
39681;BME280;26327;42.550;23.120;2023-04-29T09:30:05;92724.88;;;27.90;19.09
39681;BME280;26327;42.550;23.120;2023-04-29T09:32:31;92684.56;;;27.31;19.54
39681;BME280;26327;42.550;23.120;2023-04-29T09:34:56;92735.56;;;27.05;20.42
39681;BME280;26327;42.550;23.120;2023-04-29T09:37:26;92717.50;;;26.39;19.63
39681;BME280;26327;42.550;23.120;2023-04-29T09:39:53;92683.78;;;25.46;20.95
39681;BME280;26327;42.550;23.120;2023-04-29T09:42:19;92686.56;;;25.26;21.63
39681;BME280;26327;42.550;23.120;2023-04-29T09:44:44;92719.63;;;24.89;22.06
39681;BME280;26327;42.550;23.120;2023-04-29T09:47:10;92699.56;;;24.37;22.70
39681;BME280;26327;42.550;23.120;2023-04-29T09:49:42;92665.03;;;24.12;23.51
39681;BME280;26327;42.550;23.120;2023-04-29T09:52:14;92688.97;;;24.27;23.15
39681;BME280;26327;42.550;23.120;2023-04-29T09:54:41;92707.50;;;23.71;23.41
39681;BME280;26327;42.550;23.120;2023-04-29T09:57:09;92639.00;;;23.48;23.17
39681;BME280;26327;42.550;23.120;2023-04-29T09:59:36;92696.44;;;23.12;23.38
39681;BME280;26327;42.550;23.120;2023-04-29T10:02:08;92587.50;;;22.30;23.71
39681;BME280;26327;42.550;23.120;2023-04-29T10:04:35;92653.28;;;21.48;23.57
39681;BME280;26327;42.550;23.120;2023-04-29T10:07:04;92572.94;;;21.22;24.90
39681;BME280;26327;42.550;23.120;2023-04-29T10:09:30;92700.50;;;21.66;25.17
39681;BME280;26327;42.550;23.120;2023-04-29T10:11:59;92680.75;;;20.76;26.11
39681;BME280;26327;42.550;23.120;2023-04-29T10:14:26;92701.66;;;20.99;24.72
39681;BME280;26327;42.550;23.120;2023-04-29T10:17:01;92706.78;;;20.46;25.76
39681;BME280;26327;42.550;23.120;2023-04-29T10:19:39;92697.97;;;20.57;25.65
39681;BME280;26327;42.550;23.120;2023-04-29T10:22:16;92703.00;;;20.58;25.07
39681;BME280;26327;42.550;23.120;2023-04-29T10:24:44;92700.47;;;20.47;24.63
39681;BME280;26327;42.550;23.120;2023-04-29T10:27:11;92632.91;;;19.90;25.65
39681;BME280;26327;42.550;23.120;2023-04-29T10:29:38;92609.44;;;19.55;25.46
39681;BME280;26327;42.550;23.120;2023-04-29T10:32:08;92686.59;;;20.01;25.89
39681;BME280;26327;42.550;23.120;2023-04-29T10:34:36;92631.22;;;20.01;26.36
39681;BME280;26327;42.550;23.120;2023-04-29T10:37:05;92683.09;;;19.95;26.15
39681;BME280;26327;42.550;23.120;2023-04-29T10:39:41;92693.38;;;19.63;26.44
39681;BME280;26327;42.550;23.120;2023-04-29T10:42:41;92691.47;;;19.59;25.13
39681;BME280;26327;42.550;23.120;2023-04-29T10:45:27;92689.09;;;20.29;23.77
39681;BME280;26327;42.550;23.120;2023-04-29T10:53:18;92672.25;;;20.13;24.28
39681;BME280;26327;42.550;23.120;2023-04-29T10:56:04;92661.88;;;20.40;24.53
39681;BME280;26327;42.550;23.120;2023-04-29T10:58:42;92697.91;;;20.52;23.89
39681;BME280;26327;42.550;23.120;2023-04-29T11:01:13;92627.75;;;19.33;24.28
39681;BME280;26327;42.550;23.120;2023-04-29T11:03:54;92621.09;;;19.42;24.46
39681;BME280;26327;42.550;23.120;2023-04-29T11:11:43;92679.25;;;19.69;22.86
39681;BME280;26327;42.550;23.120;2023-04-29T11:14:10;92689.34;;;19.44;23.87
39681;BME280;26327;42.550;23.120;2023-04-29T11:16:37;92628.69;;;18.94;23.42
39681;BME280;26327;42.550;23.120;2023-04-29T11:19:07;92607.16;;;19.13;24.62
39681;BME280;26327;42.550;23.120;2023-04-29T11:21:34;92682.31;;;19.49;25.05
39681;BME280;26327;42.550;23.120;2023-04-29T11:24:00;92651.34;;;19.11;24.97
39681;BME280;26327;42.550;23.120;2023-04-29T11:26:26;92615.28;;;18.95;24.95
39681;BME280;26327;42.550;23.120;2023-04-29T11:28:52;92592.97;;;18.58;24.75
39681;BME280;26327;42.550;23.120;2023-04-29T11:31:18;92666.97;;;18.73;24.72
39681;BME280;26327;42.550;23.120;2023-04-29T11:33:43;92679.78;;;18.69;26.36
39681;BME280;26327;42.550;23.120;2023-04-29T11:36:10;92674.53;;;18.58;25.72
39681;BME280;26327;42.550;23.120;2023-04-29T11:38:38;92658.78;;;18.46;26.17
39681;BME280;26327;42.550;23.120;2023-04-29T11:41:05;92594.47;;;17.90;27.32
39681;BME280;26327;42.550;23.120;2023-04-29T11:43:30;92599.28;;;17.81;26.88
39681;BME280;26327;42.550;23.120;2023-04-29T11:45:56;92678.38;;;18.03;26.86
39681;BME280;26327;42.550;23.120;2023-04-29T11:48:23;92607.72;;;17.60;27.01
39681;BME280;26327;42.550;23.120;2023-04-29T11:50:51;92684.53;;;18.20;27.16
39681;BME280;26327;42.550;23.120;2023-04-29T11:53:20;92647.59;;;17.92;27.49
39681;BME280;26327;42.550;23.120;2023-04-29T11:55:47;92665.81;;;18.05;26.83
39681;BME280;26327;42.550;23.120;2023-04-29T11:58:15;92655.97;;;17.77;28.45
39681;BME280;26327;42.550;23.120;2023-04-29T12:00:42;92671.38;;;17.85;28.48
39681;BME280;26327;42.550;23.120;2023-04-29T12:03:15;92685.44;;;17.79;29.95
39681;BME280;26327;42.550;23.120;2023-04-29T12:05:50;92576.28;;;17.30;29.72
39681;BME280;26327;42.550;23.120;2023-04-29T12:08:23;92546.50;;;17.24;29.35
39681;BME280;26327;42.550;23.120;2023-04-29T12:10:49;92590.94;;;17.61;31.17
39681;BME280;26327;42.550;23.120;2023-04-29T12:13:18;92625.34;;;17.71;28.96
39681;BME280;26327;42.550;23.120;2023-04-29T12:15:45;92640.06;;;17.84;31.14
39681;BME280;26327;42.550;23.120;2023-04-29T12:18:12;92634.16;;;18.00;31.06
39681;BME280;26327;42.550;23.120;2023-04-29T12:20:38;92650.09;;;17.52;29.29
39681;BME280;26327;42.550;23.120;2023-04-29T12:23:15;92646.97;;;17.43;30.11
39681;BME280;26327;42.550;23.120;2023-04-29T12:25:50;92585.59;;;16.91;30.32
39681;BME280;26327;42.550;23.120;2023-04-29T12:28:16;92657.94;;;17.40;31.39
39681;BME280;26327;42.550;23.120;2023-04-29T12:30:46;92654.56;;;17.63;30.94
39681;BME280;26327;42.550;23.120;2023-04-29T12:33:22;92662.69;;;17.73;31.43
39681;BME280;26327;42.550;23.120;2023-04-29T12:35:49;92623.38;;;17.55;32.03
39681;BME280;26327;42.550;23.120;2023-04-29T12:38:19;92614.94;;;17.53;33.18
39681;BME280;26327;42.550;23.120;2023-04-29T12:40:44;92654.94;;;17.90;31.77
39681;BME280;26327;42.550;23.120;2023-04-29T12:43:10;92599.63;;;17.61;32.89
39681;BME280;26327;42.550;23.120;2023-04-29T12:45:37;92635.03;;;17.94;34.70
39681;BME280;26327;42.550;23.120;2023-04-29T12:48:03;92512.25;;;17.31;31.24
39681;BME280;26327;42.550;23.120;2023-04-29T12:50:33;92652.31;;;18.02;32.20
39681;BME280;26327;42.550;23.120;2023-04-29T12:52:59;92650.72;;;17.77;34.25
39681;BME280;26327;42.550;23.120;2023-04-29T12:55:25;92647.41;;;17.28;33.59
39681;BME280;26327;42.550;23.120;2023-04-29T12:57:51;92648.28;;;17.64;33.26
39681;BME280;26327;42.550;23.120;2023-04-29T13:00:16;92608.94;;;17.46;33.39
39681;BME280;26327;42.550;23.120;2023-04-29T13:02:44;92530.22;;;16.81;32.66
39681;BME280;26327;42.550;23.120;2023-04-29T13:05:10;92612.16;;;17.48;32.18
39681;BME280;26327;42.550;23.120;2023-04-29T13:07:36;92583.59;;;17.16;33.21
39681;BME280;26327;42.550;23.120;2023-04-29T13:10:03;92530.69;;;16.78;32.91
39681;BME280;26327;42.550;23.120;2023-04-29T13:12:31;92642.91;;;17.59;31.76
39681;BME280;26327;42.550;23.120;2023-04-29T13:14:56;92649.38;;;17.45;33.19
39681;BME280;26327;42.550;23.120;2023-04-29T13:17:22;92647.88;;;17.25;33.60
39681;BME280;26327;42.550;23.120;2023-04-29T13:19:47;92553.81;;;16.69;35.15